sensor_id;sensor_type;location;lat;lon;timestamp;temperature;humidity
20512;DHT22;10414;52.074;5.126;2023-05-16T00:01:47;9.50;99.90
20512;DHT22;10414;52.074;5.126;2023-05-16T00:04:18;9.60;99.90
20512;DHT22;10414;52.074;5.126;2023-05-16T00:06:44;9.60;99.90
20512;DHT22;10414;52.074;5.126;2023-05-16T00:09:11;9.60;99.90
20512;DHT22;10414;52.074;5.126;2023-05-16T00:11:38;9.60;99.90
20512;DHT22;10414;52.074;5.126;2023-05-16T00:14:05;9.50;99.90
20512;DHT22;10414;52.074;5.126;2023-05-16T00:16:32;9.50;99.90
20512;DHT22;10414;52.074;5.126;2023-05-16T00:19:01;9.50;99.90
20512;DHT22;10414;52.074;5.126;2023-05-16T00:21:30;9.40;99.90
20512;DHT22;10414;52.074;5.126;2023-05-16T00:23:57;9.40;99.90
20512;DHT22;10414;52.074;5.126;2023-05-16T00:26:24;9.40;99.90
20512;DHT22;10414;52.074;5.126;2023-05-16T00:28:54;9.40;99.90
20512;DHT22;10414;52.074;5.126;2023-05-16T00:31:20;9.30;99.90
20512;DHT22;10414;52.074;5.126;2023-05-16T00:33:50;9.40;99.90
20512;DHT22;10414;52.074;5.126;2023-05-16T00:36:16;9.50;99.90
20512;DHT22;10414;52.074;5.126;2023-05-16T00:38:44;9.30;99.90
20512;DHT22;10414;52.074;5.126;2023-05-16T00:41:11;9.30;99.90
20512;DHT22;10414;52.074;5.126;2023-05-16T00:43:38;9.30;99.90
20512;DHT22;10414;52.074;5.126;2023-05-16T00:46:05;9.30;99.90
20512;DHT22;10414;52.074;5.126;2023-05-16T00:48:33;9.30;99.90
20512;DHT22;10414;52.074;5.126;2023-05-16T00:51:00;9.30;99.90
20512;DHT22;10414;52.074;5.126;2023-05-16T00:53:29;9.30;99.90
20512;DHT22;10414;52.074;5.126;2023-05-16T00:55:59;9.20;99.90
20512;DHT22;10414;52.074;5.126;2023-05-16T00:58:27;9.20;99.90
20512;DHT22;10414;52.074;5.126;2023-05-16T01:00:58;9.20;99.90
20512;DHT22;10414;52.074;5.126;2023-05-16T01:03:27;9.20;99.90
20512;DHT22;10414;52.074;5.126;2023-05-16T01:05:54;9.10;99.90
20512;DHT22;10414;52.074;5.126;2023-05-16T01:08:20;9.10;99.90
20512;DHT22;10414;52.074;5.126;2023-05-16T01:10:52;9.10;99.90
20512;DHT22;10414;52.074;5.126;2023-05-16T01:13:32;9.10;99.90
20512;DHT22;10414;52.074;5.126;2023-05-16T01:16:07;9.00;99.90
20512;DHT22;10414;52.074;5.126;2023-05-16T01:18:41;9.10;99.90
20512;DHT22;10414;52.074;5.126;2023-05-16T01:21:12;9.10;99.90
20512;DHT22;10414;52.074;5.126;2023-05-16T01:23:51;9.10;99.90
20512;DHT22;10414;52.074;5.126;2023-05-16T01:26:21;9.10;99.90
20512;DHT22;10414;52.074;5.126;2023-05-16T01:28:49;9.10;99.90
20512;DHT22;10414;52.074;5.126;2023-05-16T01:31:17;9.10;99.90
20512;DHT22;10414;52.074;5.126;2023-05-16T01:33:45;9.10;99.90
20512;DHT22;10414;52.074;5.126;2023-05-16T01:36:19;9.10;99.90
20512;DHT22;10414;52.074;5.126;2023-05-16T01:38:57;9.10;99.90
20512;DHT22;10414;52.074;5.126;2023-05-16T01:41:34;9.00;99.90
20512;DHT22;10414;52.074;5.126;2023-05-16T01:44:12;9.10;99.90
20512;DHT22;10414;52.074;5.126;2023-05-16T01:46:43;9.00;99.90
20512;DHT22;10414;52.074;5.126;2023-05-16T01:49:15;8.90;99.90
20512;DHT22;10414;52.074;5.126;2023-05-16T01:51:44;8.90;99.90
20512;DHT22;10414;52.074;5.126;2023-05-16T01:54:12;9.00;99.90
20512;DHT22;10414;52.074;5.126;2023-05-16T01:56:50;9.00;99.90
20512;DHT22;10414;52.074;5.126;2023-05-16T01:59:18;9.00;99.90
20512;DHT22;10414;52.074;5.126;2023-05-16T02:01:45;8.90;99.90
20512;DHT22;10414;52.074;5.126;2023-05-16T02:04:12;8.80;99.90
20512;DHT22;10414;52.074;5.126;2023-05-16T02:06:40;8.90;99.90
20512;DHT22;10414;52.074;5.126;2023-05-16T02:09:10;8.90;99.90
20512;DHT22;10414;52.074;5.126;2023-05-16T02:11:36;8.90;99.90
20512;DHT22;10414;52.074;5.126;2023-05-16T02:14:05;8.70;99.90
20512;DHT22;10414;52.074;5.126;2023-05-16T02:16:33;8.80;99.90
20512;DHT22;10414;52.074;5.126;2023-05-16T02:18:59;8.90;99.90
20512;DHT22;10414;52.074;5.126;2023-05-16T02:21:28;8.90;99.90
20512;DHT22;10414;52.074;5.126;2023-05-16T02:23:55;9.00;99.90
20512;DHT22;10414;52.074;5.126;2023-05-16T02:26:22;8.90;99.90
20512;DHT22;10414;52.074;5.126;2023-05-16T02:28:54;8.90;99.90
20512;DHT22;10414;52.074;5.126;2023-05-16T02:31:26;8.90;99.90
20512;DHT22;10414;52.074;5.126;2023-05-16T02:33:53;8.90;99.90
20512;DHT22;10414;52.074;5.126;2023-05-16T02:36:20;8.90;99.90
20512;DHT22;10414;52.074;5.126;2023-05-16T02:38:47;8.90;99.90
20512;DHT22;10414;52.074;5.126;2023-05-16T02:41:14;8.90;99.90
20512;DHT22;10414;52.074;5.126;2023-05-16T02:43:43;8.90;99.90
20512;DHT22;10414;52.074;5.126;2023-05-16T02:46:21;9.00;99.90
20512;DHT22;10414;52.074;5.126;2023-05-16T02:48:49;8.90;99.90
20512;DHT22;10414;52.074;5.126;2023-05-16T02:51:16;8.80;99.90
20512;DHT22;10414;52.074;5.126;2023-05-16T02:53:43;8.90;99.90
20512;DHT22;10414;52.074;5.126;2023-05-16T02:56:10;8.90;99.90
20512;DHT22;10414;52.074;5.126;2023-05-16T02:58:40;8.80;99.90
20512;DHT22;10414;52.074;5.126;2023-05-16T03:01:08;8.80;99.90
20512;DHT22;10414;52.074;5.126;2023-05-16T03:03:35;8.90;99.90
20512;DHT22;10414;52.074;5.126;2023-05-16T03:06:09;8.90;99.90
20512;DHT22;10414;52.074;5.126;2023-05-16T03:08:36;8.90;99.90
20512;DHT22;10414;52.074;5.126;2023-05-16T03:11:03;8.90;99.90
20512;DHT22;10414;52.074;5.126;2023-05-16T03:13:30;8.90;99.90
20512;DHT22;10414;52.074;5.126;2023-05-16T03:15:57;8.90;99.90
20512;DHT22;10414;52.074;5.126;2023-05-16T03:18:24;9.00;99.90
20512;DHT22;10414;52.074;5.126;2023-05-16T03:20:54;9.00;99.90
20512;DHT22;10414;52.074;5.126;2023-05-16T03:23:23;9.00;99.90
20512;DHT22;10414;52.074;5.126;2023-05-16T03:25:50;9.00;99.90
20512;DHT22;10414;52.074;5.126;2023-05-16T03:28:17;9.00;99.90
20512;DHT22;10414;52.074;5.126;2023-05-16T03:30:44;8.70;99.90
20512;DHT22;10414;52.074;5.126;2023-05-16T03:33:10;8.80;99.90
20512;DHT22;10414;52.074;5.126;2023-05-16T03:35:38;8.80;99.90
20512;DHT22;10414;52.074;5.126;2023-05-16T03:38:07;8.70;99.90
20512;DHT22;10414;52.074;5.126;2023-05-16T03:40:39;8.80;99.90
20512;DHT22;10414;52.074;5.126;2023-05-16T03:43:05;8.90;99.90
20512;DHT22;10414;52.074;5.126;2023-05-16T03:45:38;9.00;99.90
20512;DHT22;10414;52.074;5.126;2023-05-16T03:48:05;9.10;99.90
20512;DHT22;10414;52.074;5.126;2023-05-16T03:50:32;9.10;99.90
20512;DHT22;10414;52.074;5.126;2023-05-16T03:52:59;9.00;99.90
20512;DHT22;10414;52.074;5.126;2023-05-16T03:55:28;9.10;99.90
20512;DHT22;10414;52.074;5.126;2023-05-16T03:57:56;9.10;99.90
20512;DHT22;10414;52.074;5.126;2023-05-16T04:00:27;9.10;99.90
20512;DHT22;10414;52.074;5.126;2023-05-16T04:02:53;9.10;99.90
20512;DHT22;10414;52.074;5.126;2023-05-16T04:05:23;9.10;99.90
20512;DHT22;10414;52.074;5.126;2023-05-16T04:07:50;9.10;99.90
20512;DHT22;10414;52.074;5.126;2023-05-16T04:10:17;9.10;99.90
20512;DHT22;10414;52.074;5.126;2023-05-16T04:12:46;9.10;99.90
20512;DHT22;10414;52.074;5.126;2023-05-16T04:15:17;9.10;99.90
20512;DHT22;10414;52.074;5.126;2023-05-16T04:17:46;9.20;99.90
20512;DHT22;10414;52.074;5.126;2023-05-16T04:20:13;9.20;99.90
20512;DHT22;10414;52.074;5.126;2023-05-16T04:22:40;9.50;99.90
20512;DHT22;10414;52.074;5.126;2023-05-16T04:25:07;9.40;99.90
20512;DHT22;10414;52.074;5.126;2023-05-16T04:27:37;9.70;99.90
20512;DHT22;10414;52.074;5.126;2023-05-16T04:30:05;9.80;99.90
20512;DHT22;10414;52.074;5.126;2023-05-16T04:32:33;9.80;99.90
20512;DHT22;10414;52.074;5.126;2023-05-16T04:35:01;9.90;99.90
20512;DHT22;10414;52.074;5.126;2023-05-16T04:37:28;10.20;99.90
20512;DHT22;10414;52.074;5.126;2023-05-16T04:39:55;10.50;99.90
20512;DHT22;10414;52.074;5.126;2023-05-16T04:42:23;10.70;99.90
20512;DHT22;10414;52.074;5.126;2023-05-16T04:44:50;12.20;99.90
20512;DHT22;10414;52.074;5.126;2023-05-16T04:47:17;13.70;99.90
20512;DHT22;10414;52.074;5.126;2023-05-16T04:49:48;14.50;99.90
20512;DHT22;10414;52.074;5.126;2023-05-16T04:52:15;15.20;99.90
20512;DHT22;10414;52.074;5.126;2023-05-16T04:54:42;16.40;99.90
20512;DHT22;10414;52.074;5.126;2023-05-16T04:57:09;17.70;99.90
20512;DHT22;10414;52.074;5.126;2023-05-16T04:59:40;18.30;99.90
20512;DHT22;10414;52.074;5.126;2023-05-16T05:02:06;18.70;99.90
20512;DHT22;10414;52.074;5.126;2023-05-16T05:04:33;18.80;99.90
20512;DHT22;10414;52.074;5.126;2023-05-16T05:07:01;18.60;99.90
20512;DHT22;10414;52.074;5.126;2023-05-16T05:09:31;17.10;99.90
20512;DHT22;10414;52.074;5.126;2023-05-16T05:12:00;16.20;99.90
20512;DHT22;10414;52.074;5.126;2023-05-16T05:14:27;17.00;99.90
20512;DHT22;10414;52.074;5.126;2023-05-16T05:16:54;18.50;99.90
20512;DHT22;10414;52.074;5.126;2023-05-16T05:19:21;18.90;99.90
20512;DHT22;10414;52.074;5.126;2023-05-16T05:21:48;19.60;99.90
20512;DHT22;10414;52.074;5.126;2023-05-16T05:24:17;20.60;99.20
20512;DHT22;10414;52.074;5.126;2023-05-16T05:26:44;21.40;97.80
20512;DHT22;10414;52.074;5.126;2023-05-16T05:29:14;22.70;96.50
20512;DHT22;10414;52.074;5.126;2023-05-16T05:31:41;22.80;95.70
20512;DHT22;10414;52.074;5.126;2023-05-16T05:34:07;23.10;94.50
20512;DHT22;10414;52.074;5.126;2023-05-16T05:36:34;23.70;93.90
20512;DHT22;10414;52.074;5.126;2023-05-16T05:39:04;24.60;92.60
20512;DHT22;10414;52.074;5.126;2023-05-16T05:41:32;25.00;91.80
20512;DHT22;10414;52.074;5.126;2023-05-16T05:44:01;25.30;91.10
20512;DHT22;10414;52.074;5.126;2023-05-16T05:46:28;25.40;90.80
20512;DHT22;10414;52.074;5.126;2023-05-16T05:48:55;26.50;89.00
20512;DHT22;10414;52.074;5.126;2023-05-16T05:51:22;26.80;87.70
20512;DHT22;10414;52.074;5.126;2023-05-16T05:53:48;27.50;85.80
20512;DHT22;10414;52.074;5.126;2023-05-16T05:56:15;27.90;83.20
20512;DHT22;10414;52.074;5.126;2023-05-16T05:58:47;27.70;84.00
20512;DHT22;10414;52.074;5.126;2023-05-16T06:01:13;27.50;82.40
20512;DHT22;10414;52.074;5.126;2023-05-16T06:03:45;27.90;81.70
20512;DHT22;10414;52.074;5.126;2023-05-16T06:06:12;27.70;80.50
20512;DHT22;10414;52.074;5.126;2023-05-16T06:08:46;25.90;82.70
20512;DHT22;10414;52.074;5.126;2023-05-16T06:11:20;26.20;81.60
20512;DHT22;10414;52.074;5.126;2023-05-16T06:13:48;26.40;81.10
20512;DHT22;10414;52.074;5.126;2023-05-16T06:16:16;25.00;82.40
20512;DHT22;10414;52.074;5.126;2023-05-16T06:18:43;26.10;81.80
20512;DHT22;10414;52.074;5.126;2023-05-16T06:21:10;25.00;83.10
20512;DHT22;10414;52.074;5.126;2023-05-16T06:23:37;23.30;85.20
20512;DHT22;10414;52.074;5.126;2023-05-16T06:26:04;21.90;87.70
20512;DHT22;10414;52.074;5.126;2023-05-16T06:28:31;22.00;87.80
20512;DHT22;10414;52.074;5.126;2023-05-16T06:31:01;21.40;89.50
20512;DHT22;10414;52.074;5.126;2023-05-16T06:33:28;22.40;88.90
20512;DHT22;10414;52.074;5.126;2023-05-16T06:35:55;23.90;86.30
20512;DHT22;10414;52.074;5.126;2023-05-16T06:38:22;25.10;83.70
20512;DHT22;10414;52.074;5.126;2023-05-16T06:40:51;24.20;85.70
20512;DHT22;10414;52.074;5.126;2023-05-16T06:43:19;25.70;83.50
20512;DHT22;10414;52.074;5.126;2023-05-16T06:45:46;24.70;82.90
20512;DHT22;10414;52.074;5.126;2023-05-16T06:48:17;24.20;84.70
20512;DHT22;10414;52.074;5.126;2023-05-16T06:50:46;24.10;84.70
20512;DHT22;10414;52.074;5.126;2023-05-16T06:53:13;25.10;83.80
20512;DHT22;10414;52.074;5.126;2023-05-16T06:55:40;24.70;82.20
20512;DHT22;10414;52.074;5.126;2023-05-16T06:58:07;23.70;83.60
20512;DHT22;10414;52.074;5.126;2023-05-16T07:00:34;25.20;83.10
20512;DHT22;10414;52.074;5.126;2023-05-16T07:03:01;25.60;81.10
20512;DHT22;10414;52.074;5.126;2023-05-16T07:05:29;26.10;81.00
20512;DHT22;10414;52.074;5.126;2023-05-16T07:07:56;25.70;80.10
20512;DHT22;10414;52.074;5.126;2023-05-16T07:10:23;26.50;80.00
20512;DHT22;10414;52.074;5.126;2023-05-16T07:12:51;25.60;79.20
20512;DHT22;10414;52.074;5.126;2023-05-16T07:15:18;25.60;80.00
20512;DHT22;10414;52.074;5.126;2023-05-16T07:17:48;25.80;80.00
20512;DHT22;10414;52.074;5.126;2023-05-16T07:20:17;25.60;79.10
20512;DHT22;10414;52.074;5.126;2023-05-16T07:22:45;25.70;78.80
20512;DHT22;10414;52.074;5.126;2023-05-16T07:25:14;25.30;79.50
20512;DHT22;10414;52.074;5.126;2023-05-16T07:27:41;23.40;82.40
20512;DHT22;10414;52.074;5.126;2023-05-16T07:30:11;24.30;80.80
20512;DHT22;10414;52.074;5.126;2023-05-16T07:32:39;23.60;82.80
20512;DHT22;10414;52.074;5.126;2023-05-16T07:35:06;22.60;83.90
20512;DHT22;10414;52.074;5.126;2023-05-16T07:37:34;23.30;82.00
20512;DHT22;10414;52.074;5.126;2023-05-16T07:40:03;22.70;82.00
20512;DHT22;10414;52.074;5.126;2023-05-16T07:42:33;20.70;86.20
20512;DHT22;10414;52.074;5.126;2023-05-16T07:45:00;19.60;89.90
20512;DHT22;10414;52.074;5.126;2023-05-16T07:47:26;18.60;90.70
20512;DHT22;10414;52.074;5.126;2023-05-16T07:49:53;17.30;92.20
20512;DHT22;10414;52.074;5.126;2023-05-16T07:52:20;16.80;93.60
20512;DHT22;10414;52.074;5.126;2023-05-16T07:54:47;17.30;94.00
20512;DHT22;10414;52.074;5.126;2023-05-16T07:57:15;20.50;90.80
20512;DHT22;10414;52.074;5.126;2023-05-16T07:59:42;23.40;85.70
20512;DHT22;10414;52.074;5.126;2023-05-16T08:02:17;24.30;82.60
20512;DHT22;10414;52.074;5.126;2023-05-16T08:04:44;24.80;81.40
20512;DHT22;10414;52.074;5.126;2023-05-16T08:07:10;25.80;79.00
20512;DHT22;10414;52.074;5.126;2023-05-16T08:09:37;23.00;81.80
20512;DHT22;10414;52.074;5.126;2023-05-16T08:12:05;20.40;86.80
20512;DHT22;10414;52.074;5.126;2023-05-16T08:14:33;19.90;90.00
20512;DHT22;10414;52.074;5.126;2023-05-16T08:17:01;20.90;86.80
20512;DHT22;10414;52.074;5.126;2023-05-16T08:19:28;21.00;86.60
20512;DHT22;10414;52.074;5.126;2023-05-16T08:21:57;20.10;89.10
20512;DHT22;10414;52.074;5.126;2023-05-16T08:24:24;19.50;90.10
20512;DHT22;10414;52.074;5.126;2023-05-16T08:26:53;21.70;87.10
20512;DHT22;10414;52.074;5.126;2023-05-16T08:29:21;23.20;84.90
20512;DHT22;10414;52.074;5.126;2023-05-16T08:31:49;24.30;81.10
20512;DHT22;10414;52.074;5.126;2023-05-16T08:34:19;25.50;80.20
20512;DHT22;10414;52.074;5.126;2023-05-16T08:36:45;26.60;77.90
20512;DHT22;10414;52.074;5.126;2023-05-16T08:39:13;26.20;76.40
20512;DHT22;10414;52.074;5.126;2023-05-16T08:41:40;25.60;76.10
20512;DHT22;10414;52.074;5.126;2023-05-16T08:44:07;25.50;75.60
20512;DHT22;10414;52.074;5.126;2023-05-16T08:46:36;25.40;75.70
20512;DHT22;10414;52.074;5.126;2023-05-16T08:49:04;26.00;75.80
20512;DHT22;10414;52.074;5.126;2023-05-16T08:51:33;27.40;75.90
20512;DHT22;10414;52.074;5.126;2023-05-16T08:54:03;27.00;75.40
20512;DHT22;10414;52.074;5.126;2023-05-16T08:56:35;25.50;75.20
20512;DHT22;10414;52.074;5.126;2023-05-16T08:59:03;24.90;75.00
20512;DHT22;10414;52.074;5.126;2023-05-16T09:01:32;26.00;75.20
20512;DHT22;10414;52.074;5.126;2023-05-16T09:04:00;25.80;75.50
20512;DHT22;10414;52.074;5.126;2023-05-16T09:06:29;25.20;76.00
20512;DHT22;10414;52.074;5.126;2023-05-16T09:08:59;23.80;78.10
20512;DHT22;10414;52.074;5.126;2023-05-16T09:11:27;22.20;81.90
20512;DHT22;10414;52.074;5.126;2023-05-16T09:13:54;21.10;84.00
20512;DHT22;10414;52.074;5.126;2023-05-16T09:16:21;20.60;84.60
20512;DHT22;10414;52.074;5.126;2023-05-16T09:18:53;21.40;82.90
20512;DHT22;10414;52.074;5.126;2023-05-16T09:21:21;22.10;80.90
20512;DHT22;10414;52.074;5.126;2023-05-16T09:23:50;23.30;81.20
20512;DHT22;10414;52.074;5.126;2023-05-16T09:26:23;23.10;81.10
20512;DHT22;10414;52.074;5.126;2023-05-16T09:28:52;21.20;83.40
20512;DHT22;10414;52.074;5.126;2023-05-16T09:31:21;20.20;86.00
20512;DHT22;10414;52.074;5.126;2023-05-16T09:34:06;19.40;87.00
20512;DHT22;10414;52.074;5.126;2023-05-16T09:36:33;18.50;89.50
20512;DHT22;10414;52.074;5.126;2023-05-16T09:39:02;17.70;90.70
20512;DHT22;10414;52.074;5.126;2023-05-16T09:41:32;17.30;92.20
20512;DHT22;10414;52.074;5.126;2023-05-16T09:44:03;17.60;91.70
20512;DHT22;10414;52.074;5.126;2023-05-16T09:46:30;17.90;91.00
20512;DHT22;10414;52.074;5.126;2023-05-16T09:48:59;17.90;90.70
20512;DHT22;10414;52.074;5.126;2023-05-16T09:51:28;18.80;90.80
20512;DHT22;10414;52.074;5.126;2023-05-16T09:54:00;19.30;90.80
20512;DHT22;10414;52.074;5.126;2023-05-16T09:56:27;19.70;90.40
20512;DHT22;10414;52.074;5.126;2023-05-16T09:58:56;20.60;89.50
20512;DHT22;10414;52.074;5.126;2023-05-16T10:01:24;21.00;87.00
20512;DHT22;10414;52.074;5.126;2023-05-16T10:03:53;20.10;88.40
20512;DHT22;10414;52.074;5.126;2023-05-16T10:06:21;18.90;90.00
20512;DHT22;10414;52.074;5.126;2023-05-16T10:08:53;18.30;90.70
20512;DHT22;10414;52.074;5.126;2023-05-16T10:11:21;17.70;91.30
20512;DHT22;10414;52.074;5.126;2023-05-16T10:13:50;17.30;91.80
20512;DHT22;10414;52.074;5.126;2023-05-16T10:16:20;17.90;92.10
20512;DHT22;10414;52.074;5.126;2023-05-16T10:18:49;19.00;90.40
20512;DHT22;10414;52.074;5.126;2023-05-16T10:21:17;18.60;91.20
20512;DHT22;10414;52.074;5.126;2023-05-16T10:23:47;18.50;91.20
20512;DHT22;10414;52.074;5.126;2023-05-16T10:26:16;18.00;91.20
20512;DHT22;10414;52.074;5.126;2023-05-16T10:28:44;18.10;91.00
20512;DHT22;10414;52.074;5.126;2023-05-16T10:31:13;18.80;90.70
20512;DHT22;10414;52.074;5.126;2023-05-16T10:33:40;18.70;90.50
20512;DHT22;10414;52.074;5.126;2023-05-16T10:36:07;19.40;90.70
20512;DHT22;10414;52.074;5.126;2023-05-16T10:38:35;20.60;87.20
20512;DHT22;10414;52.074;5.126;2023-05-16T10:41:03;20.60;87.70
20512;DHT22;10414;52.074;5.126;2023-05-16T10:43:31;20.60;87.60
20512;DHT22;10414;52.074;5.126;2023-05-16T10:46:02;20.00;87.60
20512;DHT22;10414;52.074;5.126;2023-05-16T10:48:31;19.30;89.10
20512;DHT22;10414;52.074;5.126;2023-05-16T10:50:58;18.60;90.00
20512;DHT22;10414;52.074;5.126;2023-05-16T10:53:29;18.20;90.20
20512;DHT22;10414;52.074;5.126;2023-05-16T10:56:08;18.00;89.80
20512;DHT22;10414;52.074;5.126;2023-05-16T10:58:46;17.70;90.70
20512;DHT22;10414;52.074;5.126;2023-05-16T11:01:25;17.60;90.70
20512;DHT22;10414;52.074;5.126;2023-05-16T11:04:07;18.20;90.20
20512;DHT22;10414;52.074;5.126;2023-05-16T11:06:43;19.10;89.30
20512;DHT22;10414;52.074;5.126;2023-05-16T11:09:22;20.10;88.10
20512;DHT22;10414;52.074;5.126;2023-05-16T11:11:58;20.80;88.00
20512;DHT22;10414;52.074;5.126;2023-05-16T11:14:34;22.10;83.70
20512;DHT22;10414;52.074;5.126;2023-05-16T11:17:08;21.70;83.40
20512;DHT22;10414;52.074;5.126;2023-05-16T11:19:42;20.00;85.60
20512;DHT22;10414;52.074;5.126;2023-05-16T11:22:22;19.30;88.60
20512;DHT22;10414;52.074;5.126;2023-05-16T11:24:52;19.00;90.10
20512;DHT22;10414;52.074;5.126;2023-05-16T11:27:26;18.40;90.00
20512;DHT22;10414;52.074;5.126;2023-05-16T11:29:54;19.10;89.60
20512;DHT22;10414;52.074;5.126;2023-05-16T11:32:24;19.40;88.70
20512;DHT22;10414;52.074;5.126;2023-05-16T11:34:51;19.00;88.10
20512;DHT22;10414;52.074;5.126;2023-05-16T11:37:19;18.80;88.30
20512;DHT22;10414;52.074;5.126;2023-05-16T11:39:47;18.60;88.20
20512;DHT22;10414;52.074;5.126;2023-05-16T11:42:14;18.30;88.40
20512;DHT22;10414;52.074;5.126;2023-05-16T11:44:42;18.20;89.60
20512;DHT22;10414;52.074;5.126;2023-05-16T11:47:09;17.50;91.00
20512;DHT22;10414;52.074;5.126;2023-05-16T11:49:41;17.50;91.70
20512;DHT22;10414;52.074;5.126;2023-05-16T11:52:09;17.40;91.90
20512;DHT22;10414;52.074;5.126;2023-05-16T11:54:36;16.90;92.20
20512;DHT22;10414;52.074;5.126;2023-05-16T11:57:04;16.40;92.90
20512;DHT22;10414;52.074;5.126;2023-05-16T11:59:36;16.30;93.60
20512;DHT22;10414;52.074;5.126;2023-05-16T12:02:05;16.40;93.70
20512;DHT22;10414;52.074;5.126;2023-05-16T12:04:37;16.30;93.80
20512;DHT22;10414;52.074;5.126;2023-05-16T12:07:08;16.70;94.20
20512;DHT22;10414;52.074;5.126;2023-05-16T12:09:38;16.70;94.00
20512;DHT22;10414;52.074;5.126;2023-05-16T12:12:06;16.90;93.20
20512;DHT22;10414;52.074;5.126;2023-05-16T12:14:34;17.20;93.30
20512;DHT22;10414;52.074;5.126;2023-05-16T12:17:03;17.30;92.70
20512;DHT22;10414;52.074;5.126;2023-05-16T12:19:30;17.50;92.60
20512;DHT22;10414;52.074;5.126;2023-05-16T12:21:56;17.50;92.10
20512;DHT22;10414;52.074;5.126;2023-05-16T12:24:30;17.60;92.20
20512;DHT22;10414;52.074;5.126;2023-05-16T12:26:57;17.40;92.10
20512;DHT22;10414;52.074;5.126;2023-05-16T12:29:24;17.30;92.50
20512;DHT22;10414;52.074;5.126;2023-05-16T12:31:52;17.10;93.10
20512;DHT22;10414;52.074;5.126;2023-05-16T12:34:19;17.00;93.20
20512;DHT22;10414;52.074;5.126;2023-05-16T12:36:50;16.80;93.50
20512;DHT22;10414;52.074;5.126;2023-05-16T12:39:17;16.80;93.70
20512;DHT22;10414;52.074;5.126;2023-05-16T12:41:46;17.10;93.30
20512;DHT22;10414;52.074;5.126;2023-05-16T12:44:15;17.70;92.60
20512;DHT22;10414;52.074;5.126;2023-05-16T12:46:44;17.80;92.20
20512;DHT22;10414;52.074;5.126;2023-05-16T12:49:14;18.00;91.70
20512;DHT22;10414;52.074;5.126;2023-05-16T12:51:48;17.60;91.60
20512;DHT22;10414;52.074;5.126;2023-05-16T12:54:15;17.60;91.70
20512;DHT22;10414;52.074;5.126;2023-05-16T12:56:43;17.30;92.30
20512;DHT22;10414;52.074;5.126;2023-05-16T12:59:11;16.90;92.50
20512;DHT22;10414;52.074;5.126;2023-05-16T13:01:38;16.80;93.20
20512;DHT22;10414;52.074;5.126;2023-05-16T13:04:09;17.20;92.90
20512;DHT22;10414;52.074;5.126;2023-05-16T13:06:40;16.90;92.40
20512;DHT22;10414;52.074;5.126;2023-05-16T13:09:07;16.70;92.40
20512;DHT22;10414;52.074;5.126;2023-05-16T13:11:34;16.80;92.70
20512;DHT22;10414;52.074;5.126;2023-05-16T13:14:01;16.90;93.30
20512;DHT22;10414;52.074;5.126;2023-05-16T13:16:30;17.20;92.60
20512;DHT22;10414;52.074;5.126;2023-05-16T13:18:56;17.30;92.40
20512;DHT22;10414;52.074;5.126;2023-05-16T13:21:23;17.50;92.40
20512;DHT22;10414;52.074;5.126;2023-05-16T13:23:52;17.80;92.30
20512;DHT22;10414;52.074;5.126;2023-05-16T13:26:19;17.90;92.10
20512;DHT22;10414;52.074;5.126;2023-05-16T13:28:46;17.90;91.80
20512;DHT22;10414;52.074;5.126;2023-05-16T13:31:18;18.10;91.70
20512;DHT22;10414;52.074;5.126;2023-05-16T13:33:47;18.10;91.50
20512;DHT22;10414;52.074;5.126;2023-05-16T13:36:14;18.40;91.30
20512;DHT22;10414;52.074;5.126;2023-05-16T13:38:41;18.10;91.40
20512;DHT22;10414;52.074;5.126;2023-05-16T13:41:07;18.00;91.00
20512;DHT22;10414;52.074;5.126;2023-05-16T13:43:36;17.60;91.20
20512;DHT22;10414;52.074;5.126;2023-05-16T13:46:03;18.00;91.50
20512;DHT22;10414;52.074;5.126;2023-05-16T13:48:30;18.10;91.30
20512;DHT22;10414;52.074;5.126;2023-05-16T13:50:58;17.60;91.10
20512;DHT22;10414;52.074;5.126;2023-05-16T13:53:25;17.20;91.70
20512;DHT22;10414;52.074;5.126;2023-05-16T13:55:52;17.00;92.00
20512;DHT22;10414;52.074;5.126;2023-05-16T13:58:19;16.90;92.00
20512;DHT22;10414;52.074;5.126;2023-05-16T14:00:47;16.60;92.10
20512;DHT22;10414;52.074;5.126;2023-05-16T14:03:14;16.70;92.60
20512;DHT22;10414;52.074;5.126;2023-05-16T14:05:41;16.90;92.50
20512;DHT22;10414;52.074;5.126;2023-05-16T14:08:09;16.70;92.50
20512;DHT22;10414;52.074;5.126;2023-05-16T14:10:36;16.70;92.90
20512;DHT22;10414;52.074;5.126;2023-05-16T14:13:03;16.90;93.00
20512;DHT22;10414;52.074;5.126;2023-05-16T14:15:29;16.80;92.40
20512;DHT22;10414;52.074;5.126;2023-05-16T14:17:58;17.10;92.30
20512;DHT22;10414;52.074;5.126;2023-05-16T14:20:25;17.50;92.50
20512;DHT22;10414;52.074;5.126;2023-05-16T14:22:52;17.60;91.70
20512;DHT22;10414;52.074;5.126;2023-05-16T14:25:26;17.60;91.80
20512;DHT22;10414;52.074;5.126;2023-05-16T14:27:56;17.40;92.00
20512;DHT22;10414;52.074;5.126;2023-05-16T14:30:23;17.20;92.10
20512;DHT22;10414;52.074;5.126;2023-05-16T14:32:50;17.10;92.10
20512;DHT22;10414;52.074;5.126;2023-05-16T14:35:17;17.00;92.60
20512;DHT22;10414;52.074;5.126;2023-05-16T14:37:44;17.00;92.40
20512;DHT22;10414;52.074;5.126;2023-05-16T14:40:16;16.80;92.80
20512;DHT22;10414;52.074;5.126;2023-05-16T14:42:45;16.90;92.90
20512;DHT22;10414;52.074;5.126;2023-05-16T14:45:11;17.00;92.40
20512;DHT22;10414;52.074;5.126;2023-05-16T14:47:40;17.10;92.60
20512;DHT22;10414;52.074;5.126;2023-05-16T14:50:08;17.40;93.20
20512;DHT22;10414;52.074;5.126;2023-05-16T14:52:37;17.50;92.50
20512;DHT22;10414;52.074;5.126;2023-05-16T14:55:07;17.10;92.70
20512;DHT22;10414;52.074;5.126;2023-05-16T14:57:39;17.00;92.90
20512;DHT22;10414;52.074;5.126;2023-05-16T15:00:08;17.00;93.20
20512;DHT22;10414;52.074;5.126;2023-05-16T15:02:36;17.00;93.30
20512;DHT22;10414;52.074;5.126;2023-05-16T15:05:04;17.20;93.50
20512;DHT22;10414;52.074;5.126;2023-05-16T15:07:32;16.90;93.70
20512;DHT22;10414;52.074;5.126;2023-05-16T15:09:59;16.70;93.80
20512;DHT22;10414;52.074;5.126;2023-05-16T15:12:26;16.90;94.40
20512;DHT22;10414;52.074;5.126;2023-05-16T15:14:53;16.70;94.20
20512;DHT22;10414;52.074;5.126;2023-05-16T15:17:21;16.90;94.50
20512;DHT22;10414;52.074;5.126;2023-05-16T15:19:48;17.20;94.10
20512;DHT22;10414;52.074;5.126;2023-05-16T15:22:17;17.00;93.90
20512;DHT22;10414;52.074;5.126;2023-05-16T15:24:47;16.90;94.50
20512;DHT22;10414;52.074;5.126;2023-05-16T15:27:13;17.10;94.60
20512;DHT22;10414;52.074;5.126;2023-05-16T15:29:41;17.10;93.90
20512;DHT22;10414;52.074;5.126;2023-05-16T15:32:08;17.20;94.20
20512;DHT22;10414;52.074;5.126;2023-05-16T15:34:37;16.90;94.00
20512;DHT22;10414;52.074;5.126;2023-05-16T15:37:04;16.60;94.50
20512;DHT22;10414;52.074;5.126;2023-05-16T15:39:30;16.50;95.00
20512;DHT22;10414;52.074;5.126;2023-05-16T15:41:57;16.60;94.80
20512;DHT22;10414;52.074;5.126;2023-05-16T15:44:28;16.30;94.90